createdAt,value
2018-12-31T00:01:28.681Z,13.77
2018-12-31T00:03:55.097Z,14.77
2018-12-31T00:06:21.617Z,14.77
2018-12-31T00:08:48.120Z,14.77
2018-12-31T00:11:14.702Z,14.90
2018-12-31T00:13:41.194Z,14.27
2018-12-31T00:16:07.601Z,13.53
2018-12-31T00:18:33.998Z,15.00
2018-12-31T00:21:00.476Z,14.70
2018-12-31T00:23:27.074Z,14.27
2018-12-31T00:25:53.558Z,14.20
2018-12-31T00:28:20.008Z,14.63
2018-12-31T00:30:46.599Z,14.73
2018-12-31T00:33:13.103Z,15.53
2018-12-31T00:35:39.573Z,15.77
2018-12-31T00:38:06.182Z,14.70
2018-12-31T00:40:32.590Z,14.93
2018-12-31T00:42:59.277Z,16.13
2018-12-31T00:45:25.778Z,15.23
2018-12-31T00:47:52.350Z,14.70
2018-12-31T00:50:18.845Z,14.57
2018-12-31T00:52:45.333Z,15.23
2018-12-31T00:55:11.846Z,15.57
2018-12-31T00:57:38.338Z,16.40
2018-12-31T01:00:04.933Z,15.17
2018-12-31T01:02:31.305Z,16.07
2018-12-31T01:04:57.751Z,16.10
2018-12-31T01:07:24.114Z,16.63
2018-12-31T01:09:50.585Z,16.17
2018-12-31T01:12:17.171Z,19.30
2018-12-31T01:14:43.662Z,17.53
2018-12-31T01:17:10.136Z,18.33
2018-12-31T01:19:36.898Z,17.90
2018-12-31T01:22:03.489Z,18.20
2018-12-31T01:24:30.086Z,17.30
2018-12-31T01:26:56.581Z,19.93
2018-12-31T01:29:23.085Z,19.27
2018-12-31T01:31:49.560Z,19.77
2018-12-31T01:34:16.145Z,18.37
2018-12-31T01:36:42.644Z,19.33
2018-12-31T01:39:09.022Z,20.67
2018-12-31T01:41:35.529Z,18.23
2018-12-31T01:44:02.010Z,20.10
2018-12-31T01:46:28.450Z,19.13
2018-12-31T01:48:54.841Z,18.50
2018-12-31T01:51:21.441Z,19.97
2018-12-31T01:53:48.020Z,19.73
2018-12-31T01:56:14.525Z,19.20
2018-12-31T01:58:40.941Z,19.67
2018-12-31T02:01:07.432Z,20.13
2018-12-31T02:03:33.809Z,19.60
2018-12-31T02:06:00.253Z,20.60
2018-12-31T02:08:26.710Z,19.50
2018-12-31T02:10:53.144Z,19.90
2018-12-31T02:13:19.622Z,19.20
2018-12-31T02:15:46.124Z,20.87
2018-12-31T02:18:12.618Z,20.53
2018-12-31T02:20:39.229Z,20.20
2018-12-31T02:23:05.847Z,18.87
2018-12-31T02:25:32.425Z,18.60
2018-12-31T02:27:58.853Z,18.63
2018-12-31T02:30:25.336Z,19.43
2018-12-31T02:32:51.968Z,18.43
2018-12-31T02:35:18.561Z,18.30
2018-12-31T02:37:45.153Z,19.43
2018-12-31T02:40:11.664Z,19.00
2018-12-31T02:42:38.189Z,17.87
2018-12-31T02:45:04.867Z,19.10
2018-12-31T02:47:31.370Z,18.87
2018-12-31T02:49:57.744Z,19.50
2018-12-31T02:52:24.158Z,17.50
2018-12-31T02:54:50.728Z,19.90
2018-12-31T02:57:17.322Z,19.13
2018-12-31T02:59:43.791Z,18.90
2018-12-31T03:02:10.394Z,17.63
2018-12-31T03:04:36.918Z,18.67
2018-12-31T03:07:03.553Z,20.10
2018-12-31T03:09:30.034Z,19.17
2018-12-31T03:11:56.641Z,17.77
2018-12-31T03:14:23.215Z,17.10
2018-12-31T03:16:49.622Z,17.97
2018-12-31T03:19:16.137Z,17.57
2018-12-31T03:21:42.517Z,18.77
2018-12-31T03:24:09.017Z,17.13
2018-12-31T03:26:35.437Z,16.67
2018-12-31T03:29:02.077Z,16.00
2018-12-31T03:31:28.546Z,16.87
2018-12-31T03:33:55.052Z,16.57
2018-12-31T03:36:21.544Z,16.50
2018-12-31T03:38:48.032Z,17.00
2018-12-31T03:41:14.627Z,15.03
2018-12-31T03:43:41.139Z,15.67
2018-12-31T03:46:07.501Z,15.23
2018-12-31T03:48:33.943Z,15.87
2018-12-31T03:51:00.416Z,14.47
2018-12-31T03:53:26.809Z,15.03
2018-12-31T03:55:53.280Z,14.53
2018-12-31T03:58:19.701Z,13.77
2018-12-31T04:00:46.289Z,15.07
2018-12-31T04:03:12.703Z,12.67
2018-12-31T04:05:39.217Z,12.03
2018-12-31T04:08:05.700Z,12.30
2018-12-31T04:10:32.112Z,12.00
2018-12-31T04:12:58.497Z,12.60
2018-12-31T04:15:25.020Z,11.90
2018-12-31T04:17:51.497Z,11.80
2018-12-31T04:20:18.005Z,11.57
2018-12-31T04:22:44.413Z,11.47
2018-12-31T04:25:10.919Z,10.63
2018-12-31T04:27:37.387Z,10.53
2018-12-31T04:30:03.890Z,11.10
2018-12-31T04:32:30.264Z,9.90
2018-12-31T04:34:56.665Z,10.60
2018-12-31T04:37:23.145Z,10.83
2018-12-31T04:39:49.635Z,10.63
2018-12-31T04:42:16.214Z,10.90
2018-12-31T04:44:42.736Z,10.10
2018-12-31T04:47:09.218Z,10.03
2018-12-31T04:49:35.839Z,9.97
2018-12-31T04:52:02.322Z,9.93
2018-12-31T04:54:28.906Z,10.37
2018-12-31T04:56:55.409Z,9.40
2018-12-31T04:59:21.890Z,9.47
2018-12-31T05:01:48.383Z,10.00
2018-12-31T05:04:14.880Z,9.50
2018-12-31T05:06:41.426Z,9.17
2018-12-31T05:09:07.904Z,9.80
2018-12-31T05:11:34.401Z,8.93
2018-12-31T05:14:00.873Z,9.27
2018-12-31T05:16:27.285Z,10.10
2018-12-31T05:18:53.769Z,9.97
2018-12-31T05:21:20.291Z,9.57
2018-12-31T05:23:46.879Z,9.10
2018-12-31T05:26:13.385Z,9.43
2018-12-31T05:28:39.866Z,9.67
2018-12-31T05:31:06.461Z,9.57
2018-12-31T05:33:32.937Z,9.40
2018-12-31T05:35:59.437Z,9.27
2018-12-31T05:38:26.017Z,9.47
2018-12-31T05:40:52.568Z,9.70
2018-12-31T05:43:19.040Z,9.07
2018-12-31T05:45:45.454Z,9.60
2018-12-31T05:48:11.879Z,10.53
2018-12-31T05:50:38.377Z,9.73
2018-12-31T05:53:04.888Z,10.20
2018-12-31T05:55:31.499Z,9.43
2018-12-31T05:57:58.090Z,9.33
2018-12-31T06:00:24.672Z,9.53
2018-12-31T06:02:51.171Z,10.30
2018-12-31T06:05:17.686Z,9.73
2018-12-31T06:07:44.295Z,10.00
2018-12-31T06:10:10.697Z,9.30
2018-12-31T06:12:37.292Z,9.23
2018-12-31T06:15:03.765Z,9.57
2018-12-31T06:17:30.381Z,8.87
2018-12-31T06:19:56.860Z,9.17
2018-12-31T06:22:23.281Z,9.47
2018-12-31T06:24:49.860Z,10.80
2018-12-31T06:27:16.370Z,10.20
2018-12-31T06:29:42.929Z,10.83
2018-12-31T06:32:09.425Z,10.80
2018-12-31T06:34:35.841Z,10.40
2018-12-31T06:37:02.249Z,10.27
2018-12-31T06:39:28.839Z,9.53
2018-12-31T06:41:55.217Z,10.63
2018-12-31T06:44:21.704Z,11.10
2018-12-31T06:46:48.209Z,9.77
2018-12-31T06:49:14.697Z,10.77
2018-12-31T06:51:41.178Z,11.03
2018-12-31T06:54:07.571Z,10.10
2018-12-31T06:56:33.952Z,10.63
2018-12-31T06:59:00.453Z,10.17
2018-12-31T07:01:27.037Z,11.63
2018-12-31T07:03:53.465Z,13.77
2018-12-31T07:06:19.988Z,14.17
2018-12-31T07:08:46.488Z,14.77
2018-12-31T07:11:13.083Z,13.03
2018-12-31T07:13:39.590Z,12.97
2018-12-31T07:16:05.963Z,12.77
2018-12-31T07:18:32.457Z,13.57
2018-12-31T07:20:58.893Z,10.77
2018-12-31T07:23:25.521Z,9.80
2018-12-31T07:25:52.101Z,9.33
2018-12-31T07:28:18.701Z,9.67
2018-12-31T07:30:45.180Z,9.40
2018-12-31T07:33:11.592Z,9.20
2018-12-31T07:35:38.168Z,9.03
2018-12-31T07:38:04.677Z,9.73
2018-12-31T07:40:31.175Z,8.97
2018-12-31T07:42:57.763Z,9.47
2018-12-31T07:45:24.363Z,9.13
2018-12-31T07:47:50.850Z,9.80
2018-12-31T07:50:17.266Z,9.13
2018-12-31T07:52:43.659Z,9.23
2018-12-31T07:55:10.177Z,10.30
2018-12-31T07:57:36.758Z,9.47
2018-12-31T08:00:04.661Z,10.60
2018-12-31T08:02:31.037Z,10.10
2018-12-31T08:04:57.449Z,10.53
2018-12-31T08:07:23.823Z,10.30
2018-12-31T08:09:50.322Z,8.70
2018-12-31T08:12:16.805Z,8.37
2018-12-31T08:14:43.214Z,9.10
2018-12-31T08:17:09.689Z,9.10
2018-12-31T08:19:36.193Z,8.83
2018-12-31T08:22:02.677Z,8.40
2018-12-31T08:24:29.158Z,7.87
2018-12-31T08:26:55.653Z,8.67
2018-12-31T08:29:22.224Z,7.93
2018-12-31T08:31:48.825Z,7.97
2018-12-31T08:34:15.301Z,8.03
2018-12-31T08:36:41.813Z,11.30
2018-12-31T08:39:08.180Z,8.57
2018-12-31T08:41:34.684Z,8.63
2018-12-31T08:44:01.259Z,9.40
2018-12-31T08:46:27.749Z,10.30
2018-12-31T08:48:54.325Z,9.23
2018-12-31T08:51:20.820Z,9.60
2018-12-31T08:53:47.308Z,8.50
2018-12-31T08:56:13.718Z,8.80
2018-12-31T08:58:40.105Z,8.40
2018-12-31T09:01:06.603Z,8.70
2018-12-31T09:03:33.017Z,8.63
2018-12-31T09:05:59.537Z,8.57
2018-12-31T09:08:26.027Z,8.37
2018-12-31T09:10:52.515Z,10.00
2018-12-31T09:13:19.128Z,13.87
2018-12-31T09:15:45.529Z,14.03
2018-12-31T09:18:12.148Z,9.60
2018-12-31T09:20:38.626Z,8.60
2018-12-31T09:23:05.221Z,8.10
2018-12-31T09:25:31.717Z,8.90
2018-12-31T09:27:58.141Z,8.97
2018-12-31T09:30:24.530Z,7.83
2018-12-31T09:32:51.029Z,7.40
2018-12-31T09:35:17.524Z,7.93
2018-12-31T09:37:44.142Z,6.90
2018-12-31T09:40:10.545Z,7.47
2018-12-31T09:42:37.043Z,7.63
2018-12-31T09:45:03.526Z,6.60
2018-12-31T09:47:30.009Z,5.47
2018-12-31T09:49:56.627Z,6.80
2018-12-31T09:52:23.201Z,6.50
2018-12-31T09:54:49.726Z,6.90
2018-12-31T09:57:16.293Z,7.17
2018-12-31T09:59:42.811Z,6.43
2018-12-31T10:02:09.284Z,6.33
2018-12-31T10:04:35.805Z,6.53
2018-12-31T10:07:02.465Z,8.77
2018-12-31T10:09:29.076Z,9.90
2018-12-31T10:11:55.556Z,9.37
2018-12-31T10:14:22.048Z,9.57
2018-12-31T10:16:48.437Z,12.10
2018-12-31T10:19:14.852Z,11.20
2018-12-31T10:21:41.331Z,9.67
2018-12-31T10:24:07.792Z,6.90
2018-12-31T10:26:34.313Z,7.03
2018-12-31T10:29:00.689Z,6.70
2018-12-31T10:31:27.093Z,6.87
2018-12-31T10:33:53.677Z,5.90
2018-12-31T10:36:20.272Z,6.10
2018-12-31T10:38:51.016Z,6.10
2018-12-31T10:41:15.068Z,5.97
2018-12-31T10:43:41.556Z,5.80
2018-12-31T10:46:08.150Z,7.10
2018-12-31T10:48:34.721Z,6.40
2018-12-31T10:51:01.121Z,6.70
2018-12-31T10:53:27.532Z,7.47
2018-12-31T10:55:53.926Z,7.67
2018-12-31T10:58:20.405Z,7.00
2018-12-31T11:00:46.914Z,7.57
2018-12-31T11:03:13.495Z,7.50
2018-12-31T11:05:39.924Z,6.70
2018-12-31T11:08:06.497Z,7.37
2018-12-31T11:10:32.993Z,7.40
2018-12-31T11:12:59.473Z,7.50
2018-12-31T11:15:25.959Z,6.50
2018-12-31T11:17:52.466Z,7.40
2018-12-31T11:20:18.950Z,8.00
2018-12-31T11:22:45.445Z,6.73
2018-12-31T11:25:11.836Z,6.17
2018-12-31T11:27:38.329Z,6.30
2018-12-31T11:30:05.112Z,6.20
2018-12-31T11:32:31.547Z,6.20
2018-12-31T11:34:57.981Z,5.93
2018-12-31T11:37:24.495Z,5.90
2018-12-31T11:39:51.016Z,6.07
2018-12-31T11:42:17.501Z,5.63
2018-12-31T11:44:44.107Z,5.97
2018-12-31T11:47:10.512Z,5.07
2018-12-31T11:49:36.989Z,5.57
2018-12-31T11:52:03.496Z,4.90
2018-12-31T11:54:29.994Z,4.00
2018-12-31T11:56:56.585Z,4.07
2018-12-31T11:59:23.099Z,4.47
2018-12-31T12:01:49.573Z,4.47
2018-12-31T12:04:16.189Z,4.03
2018-12-31T12:06:42.631Z,3.73
2018-12-31T12:09:09.104Z,4.10
2018-12-31T12:11:35.534Z,4.23
2018-12-31T12:14:02.061Z,4.37
2018-12-31T12:16:28.732Z,4.53
2018-12-31T12:18:55.243Z,4.63
2018-12-31T12:21:22.011Z,4.83
2018-12-31T12:23:48.441Z,4.97
2018-12-31T12:26:15.005Z,5.03
2018-12-31T12:28:41.520Z,5.43
2018-12-31T12:31:08.010Z,6.00
2018-12-31T12:33:34.703Z,6.47
2018-12-31T12:36:01.410Z,5.97
2018-12-31T12:38:27.910Z,6.17
2018-12-31T12:40:54.390Z,6.17
2018-12-31T12:43:20.909Z,5.30
2018-12-31T12:45:47.385Z,5.77
2018-12-31T12:48:13.762Z,6.37
2018-12-31T12:50:40.797Z,5.60
2018-12-31T12:53:07.177Z,6.70
2018-12-31T12:55:33.674Z,6.47
2018-12-31T12:58:00.158Z,6.27
2018-12-31T13:00:26.659Z,5.90
2018-12-31T13:02:53.129Z,6.60
2018-12-31T13:05:19.853Z,5.97
2018-12-31T13:07:46.922Z,5.60
2018-12-31T13:10:13.435Z,6.43
2018-12-31T13:12:39.921Z,6.73
2018-12-31T13:15:06.427Z,7.30
2018-12-31T13:17:32.899Z,7.80
2018-12-31T13:19:59.925Z,6.60
2018-12-31T13:22:26.517Z,7.20
2018-12-31T13:24:52.993Z,6.67
2018-12-31T13:27:19.617Z,6.37
2018-12-31T13:29:46.101Z,6.73
2018-12-31T13:32:12.608Z,6.60
2018-12-31T13:34:39.404Z,6.80
2018-12-31T13:37:05.901Z,6.83
2018-12-31T13:39:32.385Z,7.17
2018-12-31T13:41:58.878Z,6.47
2018-12-31T13:44:25.361Z,7.03
2018-12-31T13:46:51.836Z,7.17
2018-12-31T13:49:18.724Z,7.27
2018-12-31T13:51:45.233Z,7.30
2018-12-31T13:54:11.603Z,7.60
2018-12-31T13:56:38.001Z,8.03
2018-12-31T13:59:04.703Z,7.80
2018-12-31T14:01:31.289Z,8.37
2018-12-31T14:03:58.190Z,8.27
2018-12-31T14:06:24.587Z,7.70
2018-12-31T14:08:51.085Z,8.07
2018-12-31T14:11:18.130Z,8.60
2018-12-31T14:13:44.761Z,8.67
2018-12-31T14:16:11.181Z,8.53
2018-12-31T14:18:38.201Z,8.87
2018-12-31T14:21:04.674Z,9.03
2018-12-31T14:23:31.309Z,9.00
2018-12-31T14:25:57.775Z,8.40
2018-12-31T14:28:24.376Z,8.90
2018-12-31T14:30:50.848Z,9.80
2018-12-31T14:33:17.869Z,8.90
2018-12-31T14:35:45.955Z,9.03
2018-12-31T14:38:12.765Z,8.70
2018-12-31T14:40:39.240Z,9.30
2018-12-31T14:43:05.757Z,10.13
2018-12-31T14:45:32.172Z,9.90
2018-12-31T14:47:59.085Z,10.40
2018-12-31T14:50:25.671Z,11.37
2018-12-31T14:52:52.159Z,12.30
2018-12-31T14:55:18.873Z,13.23
2018-12-31T14:57:45.277Z,12.03
2018-12-31T15:00:11.822Z,12.07
2018-12-31T15:02:38.680Z,11.93
2018-12-31T15:05:05.391Z,11.03
2018-12-31T15:07:31.790Z,12.80
2018-12-31T15:09:58.289Z,13.27
2018-12-31T15:12:24.769Z,12.70
2018-12-31T15:14:51.211Z,12.07
2018-12-31T15:17:18.093Z,11.17
2018-12-31T15:19:44.708Z,12.97
2018-12-31T15:22:11.177Z,11.23
2018-12-31T15:24:37.684Z,13.30
2018-12-31T15:27:04.169Z,12.33
2018-12-31T15:29:30.769Z,14.97
2018-12-31T15:31:57.357Z,14.27
2018-12-31T15:34:23.765Z,15.40
2018-12-31T15:36:50.145Z,15.80
2018-12-31T15:39:16.641Z,15.10
2018-12-31T15:41:43.144Z,15.60
2018-12-31T15:44:09.547Z,15.67
2018-12-31T15:46:36.046Z,15.33
2018-12-31T15:49:02.631Z,16.17
2018-12-31T15:51:29.149Z,14.03
2018-12-31T15:53:55.717Z,12.17
2018-12-31T15:56:22.137Z,15.87
2018-12-31T15:58:48.548Z,13.90
2018-12-31T16:01:15.050Z,12.70
2018-12-31T16:03:41.927Z,13.50
2018-12-31T16:06:08.469Z,14.00
2018-12-31T16:08:35.053Z,14.63
2018-12-31T16:11:01.665Z,13.00
2018-12-31T16:13:28.245Z,13.43
2018-12-31T16:15:54.847Z,15.00
2018-12-31T16:18:21.726Z,14.00
2018-12-31T16:20:48.214Z,13.57
2018-12-31T16:23:14.709Z,13.90
2018-12-31T16:25:41.125Z,14.57
2018-12-31T16:28:07.888Z,19.63
2018-12-31T16:30:34.465Z,16.50
2018-12-31T16:33:01.182Z,16.30
2018-12-31T16:35:27.664Z,16.47
2018-12-31T16:37:54.258Z,17.60
2018-12-31T16:40:20.746Z,19.57
2018-12-31T16:42:47.268Z,18.07
2018-12-31T16:45:13.745Z,15.90
2018-12-31T16:47:40.353Z,15.47
2018-12-31T16:50:06.960Z,14.57
2018-12-31T16:52:33.629Z,15.53
2018-12-31T16:55:00.080Z,14.63
2018-12-31T16:57:26.765Z,13.77
2018-12-31T16:59:53.245Z,14.10
2018-12-31T17:02:19.856Z,14.03
2018-12-31T17:04:46.328Z,14.13
2018-12-31T17:07:12.868Z,13.77
2018-12-31T17:09:39.244Z,13.87
2018-12-31T17:12:05.727Z,14.17
2018-12-31T17:14:32.227Z,12.63
2018-12-31T17:16:58.803Z,13.73
2018-12-31T17:19:25.702Z,20.33
2018-12-31T17:21:52.185Z,16.70
2018-12-31T17:24:18.682Z,14.40
2018-12-31T17:26:45.204Z,13.97
2018-12-31T17:29:11.677Z,14.23
2018-12-31T17:31:38.261Z,14.83
2018-12-31T17:34:05.190Z,14.90
2018-12-31T17:36:31.592Z,15.33
2018-12-31T17:38:58.092Z,15.60
2018-12-31T17:41:24.569Z,15.53
2018-12-31T17:43:51.208Z,15.50
2018-12-31T17:46:17.821Z,14.97
2018-12-31T17:48:44.225Z,15.20
2018-12-31T17:51:10.811Z,15.00
2018-12-31T17:53:37.293Z,15.23
2018-12-31T17:56:03.805Z,15.27
2018-12-31T17:58:30.404Z,16.17
2018-12-31T18:00:56.926Z,14.67
2018-12-31T18:03:25.514Z,16.83
2018-12-31T18:05:51.937Z,16.27
2018-12-31T18:08:18.420Z,17.27
2018-12-31T18:10:45.033Z,17.27
2018-12-31T18:13:13.253Z,62.10
2018-12-31T18:15:39.916Z,42.10
2018-12-31T18:18:06.355Z,22.23
2018-12-31T18:20:32.962Z,20.37
2018-12-31T18:22:59.535Z,20.70
2018-12-31T18:25:26.052Z,20.23
2018-12-31T18:27:52.428Z,19.67
2018-12-31T18:30:19.009Z,18.20
2018-12-31T18:32:45.509Z,18.67
2018-12-31T18:35:12.400Z,19.83
2018-12-31T18:37:41.902Z,19.60
2018-12-31T18:40:07.416Z,21.23
2018-12-31T18:42:33.988Z,21.27
2018-12-31T18:45:00.831Z,23.20
2018-12-31T18:47:27.247Z,26.07
2018-12-31T18:49:53.914Z,24.93
2018-12-31T18:52:20.522Z,25.07
2018-12-31T18:54:46.989Z,24.57
2018-12-31T18:57:13.585Z,22.00
2018-12-31T18:59:40.062Z,22.13
2018-12-31T19:02:06.559Z,23.73
2018-12-31T19:04:33.457Z,23.80
2018-12-31T19:07:00.013Z,23.93
2018-12-31T19:09:26.484Z,22.30
2018-12-31T19:11:53.073Z,18.70
2018-12-31T19:14:19.716Z,18.27
2018-12-31T19:16:46.986Z,19.30
2018-12-31T19:19:16.663Z,20.17
2018-12-31T19:21:43.129Z,25.67
2018-12-31T19:24:09.541Z,37.50
2018-12-31T19:26:36.022Z,31.37
2018-12-31T19:29:02.492Z,24.03
2018-12-31T19:31:30.942Z,20.23
2018-12-31T19:33:57.545Z,21.77
2018-12-31T19:36:24.118Z,21.70
2018-12-31T19:38:50.515Z,21.80
2018-12-31T19:41:17.001Z,32.67
2018-12-31T19:43:43.598Z,37.30
2018-12-31T19:46:10.005Z,28.03
2018-12-31T19:48:36.630Z,24.10
2018-12-31T19:51:03.205Z,24.80
2018-12-31T19:53:29.572Z,43.40
2018-12-31T19:55:56.175Z,23.87
2018-12-31T19:58:22.576Z,21.50
2018-12-31T20:00:49.208Z,22.23
2018-12-31T20:03:15.729Z,19.50
2018-12-31T20:05:42.682Z,18.73
2018-12-31T20:08:09.157Z,18.97
2018-12-31T20:10:35.570Z,21.27
2018-12-31T20:13:02.140Z,23.47
2018-12-31T20:15:28.641Z,29.00
2018-12-31T20:17:55.028Z,87.10
2018-12-31T20:20:21.826Z,42.60
2018-12-31T20:22:48.493Z,29.57
2018-12-31T20:25:14.996Z,25.87
2018-12-31T20:27:41.396Z,22.10
2018-12-31T20:30:07.900Z,21.67
2018-12-31T20:32:34.482Z,21.37
2018-12-31T20:35:01.115Z,21.83
2018-12-31T20:37:27.950Z,20.47
2018-12-31T20:39:54.529Z,18.33
2018-12-31T20:42:21.127Z,19.80
2018-12-31T20:44:47.811Z,19.03
2018-12-31T20:47:14.409Z,17.70
2018-12-31T20:49:40.884Z,19.80
2018-12-31T20:52:07.397Z,19.10
2018-12-31T20:54:34.283Z,19.87
2018-12-31T20:57:00.696Z,18.20
2018-12-31T20:59:27.289Z,19.23
2018-12-31T21:01:53.845Z,19.37
2018-12-31T21:04:20.460Z,19.33
2018-12-31T21:06:47.092Z,19.63
2018-12-31T21:09:13.673Z,18.77
2018-12-31T21:11:40.189Z,19.07
2018-12-31T21:14:06.773Z,18.67
2018-12-31T21:16:33.291Z,19.70
2018-12-31T21:18:59.764Z,20.43
2018-12-31T21:21:26.249Z,22.77
2018-12-31T21:23:52.749Z,22.67
2018-12-31T21:26:19.465Z,20.80
2018-12-31T21:28:45.970Z,20.47
2018-12-31T21:31:12.452Z,20.83
2018-12-31T21:33:38.850Z,21.47
2018-12-31T21:36:07.483Z,21.97
2018-12-31T21:38:33.981Z,24.10
2018-12-31T21:41:00.500Z,27.33
2018-12-31T21:43:26.988Z,23.73
2018-12-31T21:45:53.468Z,22.00
2018-12-31T21:48:19.970Z,22.13
2018-12-31T21:50:46.553Z,20.00
2018-12-31T21:53:13.081Z,23.47
2018-12-31T21:55:39.669Z,25.60
2018-12-31T21:58:06.473Z,21.33
2018-12-31T22:00:32.944Z,38.67
2018-12-31T22:02:59.429Z,26.70
2018-12-31T22:05:25.932Z,20.33
2018-12-31T22:07:52.440Z,19.90
2018-12-31T22:10:18.966Z,18.47
2018-12-31T22:12:45.546Z,28.73
2018-12-31T22:15:12.062Z,42.47
2018-12-31T22:17:38.445Z,40.20
2018-12-31T22:20:06.445Z,24.73
2018-12-31T22:22:32.933Z,18.47
2018-12-31T22:24:59.427Z,19.90
2018-12-31T22:27:26.013Z,18.80
2018-12-31T22:29:52.516Z,19.23
2018-12-31T22:32:19.002Z,19.27
2018-12-31T22:34:45.413Z,18.63
2018-12-31T22:37:12.001Z,18.13
2018-12-31T22:39:38.397Z,17.97
2018-12-31T22:42:04.979Z,18.83
2018-12-31T22:44:31.872Z,16.60
2018-12-31T22:46:58.449Z,17.23
2018-12-31T22:49:24.853Z,17.53
2018-12-31T22:51:51.466Z,20.40
2018-12-31T22:54:18.049Z,18.97
2018-12-31T22:56:44.549Z,22.67
2018-12-31T22:59:11.330Z,42.43
2018-12-31T23:01:37.825Z,31.23
2018-12-31T23:04:06.753Z,67.93
2018-12-31T23:06:33.185Z,220.73
2018-12-31T23:08:59.863Z,136.63
2018-12-31T23:11:26.366Z,91.97
2018-12-31T23:13:53.351Z,127.40
2018-12-31T23:16:19.860Z,139.10
2018-12-31T23:18:46.261Z,146.03
2018-12-31T23:21:14.709Z,85.97
2018-12-31T23:23:41.112Z,81.37
2018-12-31T23:26:07.605Z,118.03
2018-12-31T23:28:34.284Z,119.27
2018-12-31T23:31:01.569Z,129.03
2018-12-31T23:33:28.149Z,122.47
2018-12-31T23:35:54.653Z,136.67
2018-12-31T23:38:21.060Z,160.97
2018-12-31T23:40:47.441Z,173.27
2018-12-31T23:43:13.868Z,205.53
2018-12-31T23:45:40.358Z,184.50
2018-12-31T23:48:06.793Z,152.33
2018-12-31T23:50:33.285Z,125.23
2018-12-31T23:52:59.792Z,109.47
2018-12-31T23:55:26.270Z,98.87
2018-12-31T23:57:52.870Z,102.70
